Malcolm Mc Kinnon Airport
KSSI : now visible

Airfield :











YOU CAN JOIN US ON...

 
LOGIN :

Register | Disclaimer

   EN    FR    IT 

 









Legend :    VFR   Marginal VFR   IFR   Intensive IFR   Very Intensive IFR
Visi :
Ceiling :
>= 8 km
>= 3000ft
5 to 8 km
1000 to 3000 ft
1500m to 5 km
500 to 1000 ft
800 to 1500m
200 to 500 ft
< 800m
< 200 ft
Symbols :   Thunderstorms  Fog  Heavy snow  Heavy precipitations  Wind > 20 kt






- Airport Elevation : 19 ft


KSSI - Malcolm Mc Kinnon

CURRENT METAR :
  • 110853Z AUTO 25005KT 10SM CLR 24/23 A2998 RMK AO2 SLP153 T02390233 56021

EXPIRED METARs :
  • 110753Z AUTO 25005KT 10SM CLR 24/24 A3000 RMK AO2 SLP159 T02440239
  • 110653Z AUTO 24004KT 10SM FEW110 24/24 A3000 RMK AO2 SLP161 T02440239

TAF KSSI
Valid from the 11 at 06:00 until the 12 at 06:00 UTC


110527Z 1106/1206 23006KT P6SM FEW025 BKN150
FM111800 16009KT P6SM VCSH FEW028 SCT200
FM112000 16009KT P6SM VCTS SCT030CB BKN200
PROB30 1121/1124 VRB15G25KT 3SM TSRA BKN030CB
FM120200 23007KT P6SM VCSH SCT050 BKN200
FM120400 24006KT P6SM SCT050 BKN150
KZJX FIR / North America



MET'MAP, your aeronautical weather chart ! - Copyright ORBIFLY December 2007 - Disclaimer

ORBIFLY MET'MAP TEAM :

Programming & Development : Alexandra Zaïnal
Concept & original design : Baudouin d'Aumeries
Assistance for programming : Marc-Olivier Méhu
Technical & hardware support : Manuel Goepfert

Contact : metmap@orbifly.com




SOURCES & CREDITS :

   NOAA       Earth
Advisory